Aviation Digital Data Service (ADDS)

Output produced by METARs form (1737 UTC 24 June 2019)
found at http://www.aviationweather.gov/metar/data/
 
METAR text: TFFR 241730Z AUTO 13016KT 9999 FEW027 31/24 Q1015 TEMPO 4000 SHRA SCT015TCU SCT030
Conditions at: TFFR (LE RAIZET , GP) observed 1730 UTC 24 June 2019
Temperature: 31.0°C (88°F)
Dewpoint: 24.0°C (75°F) [RH = 66%]
Pressure (altimeter): 29.97 inches Hg (1015.0 mb)
Winds: from the SE (130 degrees) at 18 MPH (16 knots; 8.2 m/s)
Visibility: 6 or more miles (10+ km)
Ceiling: at least 12,000 feet AGL
Clouds: few clouds at 2700 feet AGL
Weather: no significant weather observed at this time

METAR text: TFFR 241700Z AUTO 13016KT 100V160 9999 SCT026 31/25 Q1015 TEMPO 4000 SHRA SCT015TCU SCT030
Conditions at: TFFR (LE RAIZET , GP) observed 1700 UTC 24 June 2019
Temperature: 31.0°C (88°F)
Dewpoint: 25.0°C (77°F) [RH = 71%]
Pressure (altimeter): 29.97 inches Hg (1015.0 mb)
Winds: from the SE (130 degrees) at 18 MPH (16 knots; 8.2 m/s)
Visibility: 6 or more miles (10+ km)
Ceiling: at least 12,000 feet AGL
Clouds: scattered clouds at 2600 feet AGL
Weather: no significant weather observed at this time

METAR text: TFFR 241630Z AUTO 13015KT 100V160 9999 FEW024 31/25 Q1016 NOSIG
Conditions at: TFFR (LE RAIZET , GP) observed 1630 UTC 24 June 2019
Temperature: 31.0°C (88°F)
Dewpoint: 25.0°C (77°F) [RH = 71%]
Pressure (altimeter): 30.00 inches Hg (1016.0 mb)
Winds: from the SE (130 degrees) at 17 MPH (15 knots; 7.7 m/s)
Visibility: 6 or more miles (10+ km)
Ceiling: at least 12,000 feet AGL
Clouds: few clouds at 2400 feet AGL
Weather: no significant weather observed at this time

METAR text: TFFR 241600Z AUTO 14013KT 9999 SCT025 SCT032 BKN046 31/25 Q1016 BECMG 08010KT
Conditions at: TFFR (LE RAIZET , GP) observed 1600 UTC 24 June 2019
Temperature: 31.0°C (88°F)
Dewpoint: 25.0°C (77°F) [RH = 71%]
Pressure (altimeter): 30.00 inches Hg (1016.0 mb)
Winds: from the SE (140 degrees) at 15 MPH (13 knots; 6.7 m/s)
Visibility: 6 or more miles (10+ km)
Ceiling: 4600 feet AGL
Clouds: scattered clouds at 2500 feet AGL
scattered clouds at 3200 feet AGL
broken clouds at 4600 feet AGL
Weather: no significant weather observed at this time

METAR text: TFFR 241530Z AUTO 14015KT 110V170 9999 BKN021 BKN032 BKN038 31/24 Q1016 NOSIG
Conditions at: TFFR (LE RAIZET , GP) observed 1530 UTC 24 June 2019
Temperature: 31.0°C (88°F)
Dewpoint: 24.0°C (75°F) [RH = 66%]
Pressure (altimeter): 30.00 inches Hg (1016.0 mb)
Winds: from the SE (140 degrees) at 17 MPH (15 knots; 7.7 m/s)
Visibility: 6 or more miles (10+ km)
Ceiling: 2100 feet AGL
Clouds: broken clouds at 2100 feet AGL
broken clouds at 3200 feet AGL
broken clouds at 3800 feet AGL
Weather: no significant weather observed at this time

METAR text: TFFR 241500Z AUTO 13015KT 9999 BKN022 BKN054 31/25 Q1016 NOSIG
Conditions at: TFFR (LE RAIZET , GP) observed 1500 UTC 24 June 2019
Temperature: 31.0°C (88°F)
Dewpoint: 25.0°C (77°F) [RH = 71%]
Pressure (altimeter): 30.00 inches Hg (1016.0 mb)
Winds: from the SE (130 degrees) at 17 MPH (15 knots; 7.7 m/s)
Visibility: 6 or more miles (10+ km)
Ceiling: 2200 feet AGL
Clouds: broken clouds at 2200 feet AGL
broken clouds at 5400 feet AGL
Weather: no significant weather observed at this time

METAR text: TFFR 241430Z AUTO 14016KT 9999 BKN023 BKN032 OVC052 30/25 Q1016 BECMG 08010KT
Conditions at: TFFR (LE RAIZET , GP) observed 1430 UTC 24 June 2019
Temperature: 30.0°C (86°F)
Dewpoint: 25.0°C (77°F) [RH = 75%]
Pressure (altimeter): 30.00 inches Hg (1016.0 mb)
Winds: from the SE (140 degrees) at 18 MPH (16 knots; 8.2 m/s)
Visibility: 6 or more miles (10+ km)
Ceiling: 2300 feet AGL
Clouds: broken clouds at 2300 feet AGL
broken clouds at 3200 feet AGL
overcast cloud deck at 5200 feet AGL
Weather: no significant weather observed at this time

METAR text: TFFR 241400Z AUTO 14013KT 110V170 9999 BKN020 BKN025 BKN034 30/24 Q1016 TEMPO 4000 SHRA SCT015TCU SCT030
Conditions at: TFFR (LE RAIZET , GP) observed 1400 UTC 24 June 2019
Temperature: 30.0°C (86°F)
Dewpoint: 24.0°C (75°F) [RH = 70%]
Pressure (altimeter): 30.00 inches Hg (1016.0 mb)
Winds: from the SE (140 degrees) at 15 MPH (13 knots; 6.7 m/s)
Visibility: 6 or more miles (10+ km)
Ceiling: 2000 feet AGL
Clouds: broken clouds at 2000 feet AGL
broken clouds at 2500 feet AGL
broken clouds at 3400 feet AGL
Weather: no significant weather observed at this time

METAR text: TFFR 241330Z AUTO 14012KT 110V180 9999 BKN022 BKN031 BKN037 29/25 Q1016 TEMPO 4000 SHRA SCT015TCU SCT030
Conditions at: TFFR (LE RAIZET , GP) observed 1330 UTC 24 June 2019
Temperature: 29.0°C (84°F)
Dewpoint: 25.0°C (77°F) [RH = 79%]
Pressure (altimeter): 30.00 inches Hg (1016.0 mb)
Winds: from the SE (140 degrees) at 14 MPH (12 knots; 6.2 m/s)
Visibility: 6 or more miles (10+ km)
Ceiling: 2200 feet AGL
Clouds: broken clouds at 2200 feet AGL
broken clouds at 3100 feet AGL
broken clouds at 3700 feet AGL
Weather: no significant weather observed at this time

METAR text: TFFR 241300Z AUTO 15010KT 9999 BKN017 BKN029 OVC046 28/24 Q1016 TEMPO 4000 SHRA SCT015TCU SCT030 BECMG 08010KT
Conditions at: TFFR (LE RAIZET , GP) observed 1300 UTC 24 June 2019
Temperature: 28.0°C (82°F)
Dewpoint: 24.0°C (75°F) [RH = 79%]
Pressure (altimeter): 30.00 inches Hg (1016.0 mb)
Winds: from the SSE (150 degrees) at 12 MPH (10 knots; 5.1 m/s)
Visibility: 6 or more miles (10+ km)
Ceiling: 1700 feet AGL
Clouds: broken clouds at 1700 feet AGL
broken clouds at 2900 feet AGL
overcast cloud deck at 4600 feet AGL
Weather: no significant weather observed at this time

METAR text: TFFR 241230Z AUTO 15006KT 120V180 9999 SCT035 OVC043 28/26 Q1016 TEMPO 4000 SHRA SCT015TCU SCT030
Conditions at: TFFR (LE RAIZET , GP) observed 1230 UTC 24 June 2019
Temperature: 28.0°C (82°F)
Dewpoint: 26.0°C (79°F) [RH = 89%]
Pressure (altimeter): 30.00 inches Hg (1016.0 mb)
Winds: from the SSE (150 degrees) at 7 MPH (6 knots; 3.1 m/s)
Visibility: 6 or more miles (10+ km)
Ceiling: 4300 feet AGL
Clouds: scattered clouds at 3500 feet AGL
overcast cloud deck at 4300 feet AGL
Weather: no significant weather observed at this time

METAR text: TFFR 241200Z AUTO 14007KT 110V170 9999 FEW012 SCT023 OVC030 27/25 Q1016 TEMPO 4000 SHRA SCT015TCU SCT030
Conditions at: TFFR (LE RAIZET , GP) observed 1200 UTC 24 June 2019
Temperature: 27.0°C (81°F)
Dewpoint: 25.0°C (77°F) [RH = 89%]
Pressure (altimeter): 30.00 inches Hg (1016.0 mb)
Winds: from the SE (140 degrees) at 8 MPH (7 knots; 3.6 m/s)
Visibility: 6 or more miles (10+ km)
Ceiling: 3000 feet AGL
Clouds: few clouds at 1200 feet AGL
scattered clouds at 2300 feet AGL
overcast cloud deck at 3000 feet AGL
Weather: no significant weather observed at this time

METAR text: TFFR 241130Z AUTO 13009KT 100V160 9999 FEW008 SCT012 BKN020 26/25 Q1016 TEMPO VRB15G25KT 1000 -TSRA BKN015CB
Conditions at: TFFR (LE RAIZET , GP) observed 1130 UTC 24 June 2019
Temperature: 26.0°C (79°F)
Dewpoint: 25.0°C (77°F) [RH = 94%]
Pressure (altimeter): 30.00 inches Hg (1016.0 mb)
Winds: from the SE (130 degrees) at 10 MPH (9 knots; 4.6 m/s)
Visibility: 6 or more miles (10+ km)
Ceiling: 2000 feet AGL
Clouds: few clouds at 800 feet AGL
scattered clouds at 1200 feet AGL
broken clouds at 2000 feet AGL
Weather: no significant weather observed at this time

METAR text: TFFR 241100Z AUTO 12007KT 9999 FEW010 SCT018 BKN030 26/25 Q1016 TEMPO VRB15G25KT 1000 -TSRA BKN015CB
Conditions at: TFFR (LE RAIZET , GP) observed 1100 UTC 24 June 2019
Temperature: 26.0°C (79°F)
Dewpoint: 25.0°C (77°F) [RH = 94%]
Pressure (altimeter): 30.00 inches Hg (1016.0 mb)
Winds: from the ESE (120 degrees) at 8 MPH (7 knots; 3.6 m/s)
Visibility: 6 or more miles (10+ km)
Ceiling: 3000 feet AGL
Clouds: few clouds at 1000 feet AGL
scattered clouds at 1800 feet AGL
broken clouds at 3000 feet AGL
Weather: no significant weather observed at this time

METAR text: TFFR 241030Z AUTO VRB02KT 9999 FEW022 SCT044 26/25 Q1015 TEMPO VRB15G25KT 1000 -TSRA BKN015CB
Conditions at: TFFR (LE RAIZET , GP) observed 1030 UTC 24 June 2019
Temperature: 26.0°C (79°F)
Dewpoint: 25.0°C (77°F) [RH = 94%]
Pressure (altimeter): 29.97 inches Hg (1015.0 mb)
Winds: variable direction winds at 2 MPH (2 knots; 1.0 m/s)
Visibility: 6 or more miles (10+ km)
Ceiling: at least 12,000 feet AGL
Clouds: few clouds at 2200 feet AGL
scattered clouds at 4400 feet AGL
Weather: no significant weather observed at this time

METAR text: TFFR 241000Z AUTO 00000KT 9999 FEW039 25/24 Q1015 TEMPO VRB15G25KT 1000 -TSRA BKN015CB
Conditions at: TFFR (LE RAIZET , GP) observed 1000 UTC 24 June 2019
Temperature: 25.0°C (77°F)
Dewpoint: 24.0°C (75°F) [RH = 94%]
Pressure (altimeter): 29.97 inches Hg (1015.0 mb)
Winds: calm
Visibility: 6 or more miles (10+ km)
Ceiling: at least 12,000 feet AGL
Clouds: few clouds at 3900 feet AGL
Weather: no significant weather observed at this time

METAR text: TFFR 240930Z AUTO 29003KT 9999 SCT037 BKN110 25/24 Q1015 TEMPO VRB15G25KT 1000 -TSRA BKN015CB
Conditions at: TFFR (LE RAIZET , GP) observed 0930 UTC 24 June 2019
Temperature: 25.0°C (77°F)
Dewpoint: 24.0°C (75°F) [RH = 94%]
Pressure (altimeter): 29.97 inches Hg (1015.0 mb)
Winds: from the WNW (290 degrees) at 3 MPH (3 knots; 1.5 m/s)
Visibility: 6 or more miles (10+ km)
Ceiling: 11000 feet AGL
Clouds: scattered clouds at 3700 feet AGL
broken clouds at 11000 feet AGL
Weather: no significant weather observed at this time

METAR text: TFFR 240900Z AUTO 31001KT 9999 ///TCU 25/24 Q1015 TEMPO VRB15G25KT 1000 -TSRA BKN015CB
Conditions at: TFFR (LE RAIZET , GP) observed 0900 UTC 24 June 2019
Temperature: 25.0°C (77°F)
Dewpoint: 24.0°C (75°F) [RH = 94%]
Pressure (altimeter): 29.97 inches Hg (1015.0 mb)
Winds: from the NW (310 degrees) at 1 MPH (1 knots; 0.5 m/s)
Visibility: 6 or more miles (10+ km)
Ceiling: unknown
Clouds: missing
Weather: no significant weather observed at this time

METAR text: TFFR 240830Z AUTO 04003KT 9999 FEW036 25/24 Q1015 TEMPO VRB15G25KT 1000 -TSRA BKN015CB
Conditions at: TFFR (LE RAIZET , GP) observed 0830 UTC 24 June 2019
Temperature: 25.0°C (77°F)
Dewpoint: 24.0°C (75°F) [RH = 94%]
Pressure (altimeter): 29.97 inches Hg (1015.0 mb)
Winds: from the NE (40 degrees) at 3 MPH (3 knots; 1.5 m/s)
Visibility: 6 or more miles (10+ km)
Ceiling: at least 12,000 feet AGL
Clouds: few clouds at 3600 feet AGL
Weather: no significant weather observed at this time

METAR text: TFFR 240800Z AUTO 33001KT 9999 SCT033 25/24 Q1015 TEMPO VRB15G25KT 1000 -TSRA BKN015CB
Conditions at: TFFR (LE RAIZET , GP) observed 0800 UTC 24 June 2019
Temperature: 25.0°C (77°F)
Dewpoint: 24.0°C (75°F) [RH = 94%]
Pressure (altimeter): 29.97 inches Hg (1015.0 mb)
Winds: from the NNW (330 degrees) at 1 MPH (1 knots; 0.5 m/s)
Visibility: 6 or more miles (10+ km)
Ceiling: at least 12,000 feet AGL
Clouds: scattered clouds at 3300 feet AGL
Weather: no significant weather observed at this time

METAR text: TFFR 240730Z AUTO 00000KT 9999 FEW037 25/24 Q1014 TEMPO VRB15G25KT 1000 -TSRA BKN015CB
Conditions at: TFFR (LE RAIZET , GP) observed 0730 UTC 24 June 2019
Temperature: 25.0°C (77°F)
Dewpoint: 24.0°C (75°F) [RH = 94%]
Pressure (altimeter): 29.94 inches Hg (1014.0 mb)
Winds: calm
Visibility: 6 or more miles (10+ km)
Ceiling: at least 12,000 feet AGL
Clouds: few clouds at 3700 feet AGL
Weather: no significant weather observed at this time

METAR text: TFFR 240700Z AUTO VRB02KT 9999 BKN029 BKN034 OVC040 25/24 Q1015 TEMPO VRB15G25KT 1000 -TSRA BKN015CB
Conditions at: TFFR (LE RAIZET , GP) observed 0700 UTC 24 June 2019
Temperature: 25.0°C (77°F)
Dewpoint: 24.0°C (75°F) [RH = 94%]
Pressure (altimeter): 29.97 inches Hg (1015.0 mb)
Winds: variable direction winds at 2 MPH (2 knots; 1.0 m/s)
Visibility: 6 or more miles (10+ km)
Ceiling: 2900 feet AGL
Clouds: broken clouds at 2900 feet AGL
broken clouds at 3400 feet AGL
overcast cloud deck at 4000 feet AGL
Weather: no significant weather observed at this time

METAR text: TFFR 240630Z AUTO 00000KT 9999 FEW018 SCT023 BKN033 25/24 Q1015 TEMPO VRB15G25KT 1000 -TSRA BKN015CB
Conditions at: TFFR (LE RAIZET , GP) observed 0630 UTC 24 June 2019
Temperature: 25.0°C (77°F)
Dewpoint: 24.0°C (75°F) [RH = 94%]
Pressure (altimeter): 29.97 inches Hg (1015.0 mb)
Winds: calm
Visibility: 6 or more miles (10+ km)
Ceiling: 3300 feet AGL
Clouds: few clouds at 1800 feet AGL
scattered clouds at 2300 feet AGL
broken clouds at 3300 feet AGL
Weather: no significant weather observed at this time

METAR text: TFFR 240600Z AUTO VRB02KT 9999 FEW014 25/24 Q1015 TEMPO VRB15G25KT 1000 -TSRA BKN015CB
Conditions at: TFFR (LE RAIZET , GP) observed 0600 UTC 24 June 2019
Temperature: 25.0°C (77°F)
Dewpoint: 24.0°C (75°F) [RH = 94%]
Pressure (altimeter): 29.97 inches Hg (1015.0 mb)
Winds: variable direction winds at 2 MPH (2 knots; 1.0 m/s)
Visibility: 6 or more miles (10+ km)
Ceiling: at least 12,000 feet AGL
Clouds: few clouds at 1400 feet AGL
Weather: no significant weather observed at this time

METAR text: TFFR 240530Z AUTO 24003KT 9999 FEW015 SCT078 25/24 Q1015 TEMPO VRB15G25KT 1000 -TSRA BKN015CB
Conditions at: TFFR (LE RAIZET , GP) observed 0530 UTC 24 June 2019
Temperature: 25.0°C (77°F)
Dewpoint: 24.0°C (75°F) [RH = 94%]
Pressure (altimeter): 29.97 inches Hg (1015.0 mb)
Winds: from the WSW (240 degrees) at 3 MPH (3 knots; 1.5 m/s)
Visibility: 6 or more miles (10+ km)
Ceiling: at least 12,000 feet AGL
Clouds: few clouds at 1500 feet AGL
scattered clouds at 7800 feet AGL
Weather: no significant weather observed at this time

METAR text: TFFR 240500Z AUTO VRB02KT CAVOK 25/24 Q1016 TEMPO VRB15G25KT 1000 -TSRA BKN015CB
Conditions at: TFFR (LE RAIZET , GP) observed 0500 UTC 24 June 2019
Temperature: 25.0°C (77°F)
Dewpoint: 24.0°C (75°F) [RH = 94%]
Pressure (altimeter): 30.00 inches Hg (1016.0 mb)
Winds: variable direction winds at 2 MPH (2 knots; 1.0 m/s)
Visibility: 6 or more miles (10+ km)
Ceiling: ceiling and visibility are OK
Clouds: unknown
Weather: no significant weather observed at this time

METAR text: TFFR 240430Z AUTO VRB01KT CAVOK 26/24 Q1016 TEMPO VRB15G25KT 1000 -TSRA BKN015CB
Conditions at: TFFR (LE RAIZET , GP) observed 0430 UTC 24 June 2019
Temperature: 26.0°C (79°F)
Dewpoint: 24.0°C (75°F) [RH = 89%]
Pressure (altimeter): 30.00 inches Hg (1016.0 mb)
Winds: variable direction winds at 1 MPH (1 knots; 0.5 m/s)
Visibility: 6 or more miles (10+ km)
Ceiling: ceiling and visibility are OK
Clouds: unknown
Weather: no significant weather observed at this time

METAR text: TFFR 240400Z AUTO 00000KT 9999 ///TCU 26/24 Q1016 TEMPO 3000 SHRA SCT015CB BKN025
Conditions at: TFFR (LE RAIZET , GP) observed 0400 UTC 24 June 2019
Temperature: 26.0°C (79°F)
Dewpoint: 24.0°C (75°F) [RH = 89%]
Pressure (altimeter): 30.00 inches Hg (1016.0 mb)
Winds: calm
Visibility: 6 or more miles (10+ km)
Ceiling: unknown
Clouds: missing
Weather: no significant weather observed at this time

METAR text: TFFR 240330Z AUTO 13003KT 9999 FEW015 26/24 Q1016 TEMPO 3000 SHRA SCT015CB BKN025
Conditions at: TFFR (LE RAIZET , GP) observed 0330 UTC 24 June 2019
Temperature: 26.0°C (79°F)
Dewpoint: 24.0°C (75°F) [RH = 89%]
Pressure (altimeter): 30.00 inches Hg (1016.0 mb)
Winds: from the SE (130 degrees) at 3 MPH (3 knots; 1.5 m/s)
Visibility: 6 or more miles (10+ km)
Ceiling: at least 12,000 feet AGL
Clouds: few clouds at 1500 feet AGL
Weather: no significant weather observed at this time

METAR text: TFFR 240300Z AUTO VRB01KT 9999 FEW017 26/24 Q1016 TEMPO 3000 SHRA SCT015CB BKN025
Conditions at: TFFR (LE RAIZET , GP) observed 0300 UTC 24 June 2019
Temperature: 26.0°C (79°F)
Dewpoint: 24.0°C (75°F) [RH = 89%]
Pressure (altimeter): 30.00 inches Hg (1016.0 mb)
Winds: variable direction winds at 1 MPH (1 knots; 0.5 m/s)
Visibility: 6 or more miles (10+ km)
Ceiling: at least 12,000 feet AGL
Clouds: few clouds at 1700 feet AGL
Weather: no significant weather observed at this time

METAR text: TFFR 240230Z AUTO 00000KT 9999 FEW015 SCT054 26/24 Q1016 TEMPO 3000 SHRA SCT015CB BKN025
Conditions at: TFFR (LE RAIZET , GP) observed 0230 UTC 24 June 2019
Temperature: 26.0°C (79°F)
Dewpoint: 24.0°C (75°F) [RH = 89%]
Pressure (altimeter): 30.00 inches Hg (1016.0 mb)
Winds: calm
Visibility: 6 or more miles (10+ km)
Ceiling: at least 12,000 feet AGL
Clouds: few clouds at 1500 feet AGL
scattered clouds at 5400 feet AGL
Weather: no significant weather observed at this time

METAR text: TFFR 240200Z AUTO 02003KT 9999 FEW015 27/24 Q1016 TEMPO 4000 SHRA SCT020TCU
Conditions at: TFFR (LE RAIZET , GP) observed 0200 UTC 24 June 2019
Temperature: 27.0°C (81°F)
Dewpoint: 24.0°C (75°F) [RH = 84%]
Pressure (altimeter): 30.00 inches Hg (1016.0 mb)
Winds: from the NNE (20 degrees) at 3 MPH (3 knots; 1.5 m/s)
Visibility: 6 or more miles (10+ km)
Ceiling: at least 12,000 feet AGL
Clouds: few clouds at 1500 feet AGL
Weather: no significant weather observed at this time

METAR text: TFFR 240130Z AUTO 02003KT 9999 FEW015 26/24 Q1016 TEMPO 4000 SHRA SCT020TCU
Conditions at: TFFR (LE RAIZET , GP) observed 0130 UTC 24 June 2019
Temperature: 26.0°C (79°F)
Dewpoint: 24.0°C (75°F) [RH = 89%]
Pressure (altimeter): 30.00 inches Hg (1016.0 mb)
Winds: from the NNE (20 degrees) at 3 MPH (3 knots; 1.5 m/s)
Visibility: 6 or more miles (10+ km)
Ceiling: at least 12,000 feet AGL
Clouds: few clouds at 1500 feet AGL
Weather: no significant weather observed at this time

METAR text: TFFR 240100Z AUTO VRB03KT CAVOK 27/25 Q1016 TEMPO 4000 SHRA SCT020TCU
Conditions at: TFFR (LE RAIZET , GP) observed 0100 UTC 24 June 2019
Temperature: 27.0°C (81°F)
Dewpoint: 25.0°C (77°F) [RH = 89%]
Pressure (altimeter): 30.00 inches Hg (1016.0 mb)
Winds: variable direction winds at 3 MPH (3 knots; 1.5 m/s)
Visibility: 6 or more miles (10+ km)
Ceiling: ceiling and visibility are OK
Clouds: unknown
Weather: no significant weather observed at this time

METAR text: TFFR 240030Z AUTO 06005KT CAVOK 27/24 Q1016 TEMPO 4000 SHRA SCT020TCU
Conditions at: TFFR (LE RAIZET , GP) observed 0030 UTC 24 June 2019
Temperature: 27.0°C (81°F)
Dewpoint: 24.0°C (75°F) [RH = 84%]
Pressure (altimeter): 30.00 inches Hg (1016.0 mb)
Winds: from the ENE (60 degrees) at 6 MPH (5 knots; 2.6 m/s)
Visibility: 6 or more miles (10+ km)
Ceiling: ceiling and visibility are OK
Clouds: unknown
Weather: no significant weather observed at this time

METAR text: TFFR 240000Z AUTO 06004KT CAVOK 27/24 Q1016 TEMPO 4000 SHRA SCT020TCU
Conditions at: TFFR (LE RAIZET , GP) observed 0000 UTC 24 June 2019
Temperature: 27.0°C (81°F)
Dewpoint: 24.0°C (75°F) [RH = 84%]
Pressure (altimeter): 30.00 inches Hg (1016.0 mb)
Winds: from the ENE (60 degrees) at 5 MPH (4 knots; 2.1 m/s)
Visibility: 6 or more miles (10+ km)
Ceiling: ceiling and visibility are OK
Clouds: unknown
Weather: no significant weather observed at this time

METAR text: TFFR 232330Z AUTO 05005KT 9999 BKN025 28/24 Q1016 TEMPO VRB15G25KT 1000 -TSRA SCT010 BKN015CB
Conditions at: TFFR (LE RAIZET , GP) observed 2330 UTC 23 June 2019
Temperature: 28.0°C (82°F)
Dewpoint: 24.0°C (75°F) [RH = 79%]
Pressure (altimeter): 30.00 inches Hg (1016.0 mb)
Winds: from the NE (50 degrees) at 6 MPH (5 knots; 2.6 m/s)
Visibility: 6 or more miles (10+ km)
Ceiling: 2500 feet AGL
Clouds: broken clouds at 2500 feet AGL
Weather: no significant weather observed at this time

METAR text: TFFR 232300Z AUTO 05006KT 9999 BKN026 28/24 Q1016 TEMPO VRB15G25KT 1000 -TSRA SCT010 BKN015CB
Conditions at: TFFR (LE RAIZET , GP) observed 2300 UTC 23 June 2019
Temperature: 28.0°C (82°F)
Dewpoint: 24.0°C (75°F) [RH = 79%]
Pressure (altimeter): 30.00 inches Hg (1016.0 mb)
Winds: from the NE (50 degrees) at 7 MPH (6 knots; 3.1 m/s)
Visibility: 6 or more miles (10+ km)
Ceiling: 2600 feet AGL
Clouds: broken clouds at 2600 feet AGL
Weather: no significant weather observed at this time

METAR text: TFFR 232230Z AUTO 09005KT CAVOK 29/23 Q1015 TEMPO VRB15G25KT 1000 -TSRA SCT010 BKN015CB
Conditions at: TFFR (LE RAIZET , GP) observed 2230 UTC 23 June 2019
Temperature: 29.0°C (84°F)
Dewpoint: 23.0°C (73°F) [RH = 70%]
Pressure (altimeter): 29.97 inches Hg (1015.0 mb)
Winds: from the E (90 degrees) at 6 MPH (5 knots; 2.6 m/s)
Visibility: 6 or more miles (10+ km)
Ceiling: ceiling and visibility are OK
Clouds: unknown
Weather: no significant weather observed at this time

METAR text: TFFR 232200Z AUTO 08006KT 9999 SCT027 29/23 Q1015 TEMPO VRB15G25KT 1000 -TSRA SCT010 BKN015CB
Conditions at: TFFR (LE RAIZET , GP) observed 2200 UTC 23 June 2019
Temperature: 29.0°C (84°F)
Dewpoint: 23.0°C (73°F) [RH = 70%]
Pressure (altimeter): 29.97 inches Hg (1015.0 mb)
Winds: from the E (80 degrees) at 7 MPH (6 knots; 3.1 m/s)
Visibility: 6 or more miles (10+ km)
Ceiling: at least 12,000 feet AGL
Clouds: scattered clouds at 2700 feet AGL
Weather: no significant weather observed at this time

METAR text: TFFR 232130Z AUTO 12009KT 090V180 9999 FEW028 29/24 Q1015 TEMPO VRB15G25KT 1000 -TSRA SCT010 BKN015CB
Conditions at: TFFR (LE RAIZET , GP) observed 2130 UTC 23 June 2019
Temperature: 29.0°C (84°F)
Dewpoint: 24.0°C (75°F) [RH = 74%]
Pressure (altimeter): 29.97 inches Hg (1015.0 mb)
Winds: from the ESE (120 degrees) at 10 MPH (9 knots; 4.6 m/s)
Visibility: 6 or more miles (10+ km)
Ceiling: at least 12,000 feet AGL
Clouds: few clouds at 2800 feet AGL
Weather: no significant weather observed at this time

METAR text: TFFR 232100Z AUTO 11011KT 9999 SCT028 30/23 Q1015 TEMPO VRB15G25KT 1000 -TSRA SCT010 BKN015CB
Conditions at: TFFR (LE RAIZET , GP) observed 2100 UTC 23 June 2019
Temperature: 30.0°C (86°F)
Dewpoint: 23.0°C (73°F) [RH = 66%]
Pressure (altimeter): 29.97 inches Hg (1015.0 mb)
Winds: from the ESE (110 degrees) at 13 MPH (11 knots; 5.7 m/s)
Visibility: 6 or more miles (10+ km)
Ceiling: at least 12,000 feet AGL
Clouds: scattered clouds at 2800 feet AGL
Weather: no significant weather observed at this time

METAR text: TFFR 232030Z AUTO 12013KT 090V150 9999 SCT027 BKN041 BKN047 30/23 Q1015 TEMPO VRB15G25KT 1000 -TSRA SCT010 BKN015CB
Conditions at: TFFR (LE RAIZET , GP) observed 2030 UTC 23 June 2019
Temperature: 30.0°C (86°F)
Dewpoint: 23.0°C (73°F) [RH = 66%]
Pressure (altimeter): 29.97 inches Hg (1015.0 mb)
Winds: from the ESE (120 degrees) at 15 MPH (13 knots; 6.7 m/s)
Visibility: 6 or more miles (10+ km)
Ceiling: 4100 feet AGL
Clouds: scattered clouds at 2700 feet AGL
broken clouds at 4100 feet AGL
broken clouds at 4700 feet AGL
Weather: no significant weather observed at this time

METAR text: TFFR 232000Z AUTO 13011KT 100V160 9999 SCT026 BKN049 30/24 Q1016 TEMPO VRB15G25KT 1000 -TSRA SCT010 BKN015CB
Conditions at: TFFR (LE RAIZET , GP) observed 2000 UTC 23 June 2019
Temperature: 30.0°C (86°F)
Dewpoint: 24.0°C (75°F) [RH = 70%]
Pressure (altimeter): 30.00 inches Hg (1016.0 mb)
Winds: from the SE (130 degrees) at 13 MPH (11 knots; 5.7 m/s)
Visibility: 6 or more miles (10+ km)
Ceiling: 4900 feet AGL
Clouds: scattered clouds at 2600 feet AGL
broken clouds at 4900 feet AGL
Weather: no significant weather observed at this time

METAR text: TFFR 231930Z AUTO 11012KT 080V140 9999 SCT028 31/24 Q1016 TEMPO VRB15G25KT 1000 -TSRA SCT010 BKN015CB
Conditions at: TFFR (LE RAIZET , GP) observed 1930 UTC 23 June 2019
Temperature: 31.0°C (88°F)
Dewpoint: 24.0°C (75°F) [RH = 66%]
Pressure (altimeter): 30.00 inches Hg (1016.0 mb)
Winds: from the ESE (110 degrees) at 14 MPH (12 knots; 6.2 m/s)
Visibility: 6 or more miles (10+ km)
Ceiling: at least 12,000 feet AGL
Clouds: scattered clouds at 2800 feet AGL
Weather: no significant weather observed at this time

METAR text: TFFR 231900Z AUTO 12012KT 9999 BKN027 BKN032 BKN039 31/24 Q1016 TEMPO 3000 SHRA SCT015 BKN020CB
Conditions at: TFFR (LE RAIZET , GP) observed 1900 UTC 23 June 2019
Temperature: 31.0°C (88°F)
Dewpoint: 24.0°C (75°F) [RH = 66%]
Pressure (altimeter): 30.00 inches Hg (1016.0 mb)
Winds: from the ESE (120 degrees) at 14 MPH (12 knots; 6.2 m/s)
Visibility: 6 or more miles (10+ km)
Ceiling: 2700 feet AGL
Clouds: broken clouds at 2700 feet AGL
broken clouds at 3200 feet AGL
broken clouds at 3900 feet AGL
Weather: no significant weather observed at this time

METAR text: TFFR 231830Z AUTO 11012KT 080V150 9999 BKN028 BKN033 31/24 Q1016 TEMPO 3000 SHRA SCT015 BKN020CB
Conditions at: TFFR (LE RAIZET , GP) observed 1830 UTC 23 June 2019
Temperature: 31.0°C (88°F)
Dewpoint: 24.0°C (75°F) [RH = 66%]
Pressure (altimeter): 30.00 inches Hg (1016.0 mb)
Winds: from the ESE (110 degrees) at 14 MPH (12 knots; 6.2 m/s)
Visibility: 6 or more miles (10+ km)
Ceiling: 2800 feet AGL
Clouds: broken clouds at 2800 feet AGL
broken clouds at 3300 feet AGL
Weather: no significant weather observed at this time

METAR text: TFFR 231800Z AUTO 12015KT 090V150 9999 BKN029 BKN034 BKN072 31/24 Q1017 TEMPO 3000 SHRA SCT015 BKN020CB
Conditions at: TFFR (LE RAIZET , GP) observed 1800 UTC 23 June 2019
Temperature: 31.0°C (88°F)
Dewpoint: 24.0°C (75°F) [RH = 66%]
Pressure (altimeter): 30.03 inches Hg (1017.0 mb)
Winds: from the ESE (120 degrees) at 17 MPH (15 knots; 7.7 m/s)
Visibility: 6 or more miles (10+ km)
Ceiling: 2900 feet AGL
Clouds: broken clouds at 2900 feet AGL
broken clouds at 3400 feet AGL
broken clouds at 7200 feet AGL
Weather: no significant weather observed at this time

METAR text: TFFR 231730Z AUTO 12014KT 090V160 9999 FEW030/// ///TCU 31/24 Q1017 TEMPO 3000 SHRA SCT015 BKN020CB
Conditions at: TFFR (LE RAIZET , GP) observed 1730 UTC 23 June 2019
Temperature: 31.0°C (88°F)
Dewpoint: 24.0°C (75°F) [RH = 66%]
Pressure (altimeter): 30.03 inches Hg (1017.0 mb)
Winds: from the ESE (120 degrees) at 16 MPH (14 knots; 7.2 m/s)
Visibility: 6 or more miles (10+ km)
Ceiling: at least 12,000 feet AGL
Clouds: few clouds at 3000 feet AGL
Weather: no significant weather observed at this time

METAR text: TFFR 231700Z AUTO 13014KT 090V150 9999 SCT029/// SCT034/// ///TCU 31/24 Q1017 TEMPO 3000 SHRA
Conditions at: TFFR (LE RAIZET , GP) observed 1700 UTC 23 June 2019
Temperature: 31.0°C (88°F)
Dewpoint: 24.0°C (75°F) [RH = 66%]
Pressure (altimeter): 30.03 inches Hg (1017.0 mb)
Winds: from the SE (130 degrees) at 16 MPH (14 knots; 7.2 m/s)
Visibility: 6 or more miles (10+ km)
Ceiling: at least 12,000 feet AGL
Clouds: scattered clouds at 2900 feet AGL
scattered clouds at 3400 feet AGL
Weather: no significant weather observed at this time

METAR text: TFFR 231630Z AUTO 13016KT 9999 SCT027/// BKN033/// BKN048/// ///TCU 31/24 Q1018 TEMPO 3000 SHRA
Conditions at: TFFR (LE RAIZET , GP) observed 1630 UTC 23 June 2019
Temperature: 31.0°C (88°F)
Dewpoint: 24.0°C (75°F) [RH = 66%]
Pressure (altimeter): 30.06 inches Hg (1018.0 mb)
Winds: from the SE (130 degrees) at 18 MPH (16 knots; 8.2 m/s)
Visibility: 6 or more miles (10+ km)
Ceiling: 3300 feet AGL
Clouds: scattered clouds at 2700 feet AGL
broken clouds at 3300 feet AGL
broken clouds at 4800 feet AGL
Weather: no significant weather observed at this time

METAR text: TFFR 231600Z AUTO 12015KT 9999 FEW021 SCT026 BKN035 30/25 Q1018 TEMPO 3000 SHRA BKN018TCU
Conditions at: TFFR (LE RAIZET , GP) observed 1600 UTC 23 June 2019
Temperature: 30.0°C (86°F)
Dewpoint: 25.0°C (77°F) [RH = 75%]
Pressure (altimeter): 30.06 inches Hg (1018.0 mb)
Winds: from the ESE (120 degrees) at 17 MPH (15 knots; 7.7 m/s)
Visibility: 6 or more miles (10+ km)
Ceiling: 3500 feet AGL
Clouds: few clouds at 2100 feet AGL
scattered clouds at 2600 feet AGL
broken clouds at 3500 feet AGL
Weather: no significant weather observed at this time

METAR text: TFFR 231530Z AUTO 08009KT 060V120 9999 SCT027 BKN034 BKN042 30/25 Q1018 TEMPO 3000 SHRA BKN018TCU
Conditions at: TFFR (LE RAIZET , GP) observed 1530 UTC 23 June 2019
Temperature: 30.0°C (86°F)
Dewpoint: 25.0°C (77°F) [RH = 75%]
Pressure (altimeter): 30.06 inches Hg (1018.0 mb)
Winds: from the E (80 degrees) at 10 MPH (9 knots; 4.6 m/s)
Visibility: 6 or more miles (10+ km)
Ceiling: 3400 feet AGL
Clouds: scattered clouds at 2700 feet AGL
broken clouds at 3400 feet AGL
broken clouds at 4200 feet AGL
Weather: no significant weather observed at this time

METAR text: TFFR 231500Z AUTO 06010KT 9999 BKN028 OVC035 28/25 Q1018 TEMPO 3000 SHRA BKN018TCU
Conditions at: TFFR (LE RAIZET , GP) observed 1500 UTC 23 June 2019
Temperature: 28.0°C (82°F)
Dewpoint: 25.0°C (77°F) [RH = 84%]
Pressure (altimeter): 30.06 inches Hg (1018.0 mb)
Winds: from the ENE (60 degrees) at 12 MPH (10 knots; 5.1 m/s)
Visibility: 6 or more miles (10+ km)
Ceiling: 2800 feet AGL
Clouds: broken clouds at 2800 feet AGL
overcast cloud deck at 3500 feet AGL
Weather: no significant weather observed at this time

METAR text: TFFR 231430Z AUTO 11011KT 040V140 9999 SCT028 BKN037 BKN056 30/24 Q1018 TEMPO 3000 SHRA BKN018TCU
Conditions at: TFFR (LE RAIZET , GP) observed 1430 UTC 23 June 2019
Temperature: 30.0°C (86°F)
Dewpoint: 24.0°C (75°F) [RH = 70%]
Pressure (altimeter): 30.06 inches Hg (1018.0 mb)
Winds: from the ESE (110 degrees) at 13 MPH (11 knots; 5.7 m/s)
Visibility: 6 or more miles (10+ km)
Ceiling: 3700 feet AGL
Clouds: scattered clouds at 2800 feet AGL
broken clouds at 3700 feet AGL
broken clouds at 5600 feet AGL
Weather: no significant weather observed at this time

METAR text: TFFR 231400Z AUTO 11010KT 080V170 9999 SCT022 BKN029 BKN037 29/25 Q1018 TEMPO 3000 SHRA BKN018TCU
Conditions at: TFFR (LE RAIZET , GP) observed 1400 UTC 23 June 2019
Temperature: 29.0°C (84°F)
Dewpoint: 25.0°C (77°F) [RH = 79%]
Pressure (altimeter): 30.06 inches Hg (1018.0 mb)
Winds: from the ESE (110 degrees) at 12 MPH (10 knots; 5.1 m/s)
Visibility: 6 or more miles (10+ km)
Ceiling: 2900 feet AGL
Clouds: scattered clouds at 2200 feet AGL
broken clouds at 2900 feet AGL
broken clouds at 3700 feet AGL
Weather: no significant weather observed at this time

METAR text: TFFR 231330Z AUTO 10009KT 9999 FEW022 SCT029 29/24 Q1018 TEMPO 3000 SHRA BKN018TCU
Conditions at: TFFR (LE RAIZET , GP) observed 1330 UTC 23 June 2019
Temperature: 29.0°C (84°F)
Dewpoint: 24.0°C (75°F) [RH = 74%]
Pressure (altimeter): 30.06 inches Hg (1018.0 mb)
Winds: from the E (100 degrees) at 10 MPH (9 knots; 4.6 m/s)
Visibility: 6 or more miles (10+ km)
Ceiling: at least 12,000 feet AGL
Clouds: few clouds at 2200 feet AGL
scattered clouds at 2900 feet AGL
Weather: no significant weather observed at this time

METAR text: TFFR 231300Z AUTO 08010KT 9999 BKN020 29/24 Q1018 TEMPO 3000 SHRA BKN018TCU
Conditions at: TFFR (LE RAIZET , GP) observed 1300 UTC 23 June 2019
Temperature: 29.0°C (84°F)
Dewpoint: 24.0°C (75°F) [RH = 74%]
Pressure (altimeter): 30.06 inches Hg (1018.0 mb)
Winds: from the E (80 degrees) at 12 MPH (10 knots; 5.1 m/s)
Visibility: 6 or more miles (10+ km)
Ceiling: 2000 feet AGL
Clouds: broken clouds at 2000 feet AGL
Weather: no significant weather observed at this time

METAR text: TFFR 231230Z AUTO 09009KT 060V130 9999 SCT017 SCT040 29/24 Q1018 TEMPO 3000 SHRA BKN018TCU
Conditions at: TFFR (LE RAIZET , GP) observed 1230 UTC 23 June 2019
Temperature: 29.0°C (84°F)
Dewpoint: 24.0°C (75°F) [RH = 74%]
Pressure (altimeter): 30.06 inches Hg (1018.0 mb)
Winds: from the E (90 degrees) at 10 MPH (9 knots; 4.6 m/s)
Visibility: 6 or more miles (10+ km)
Ceiling: at least 12,000 feet AGL
Clouds: scattered clouds at 1700 feet AGL
scattered clouds at 4000 feet AGL
Weather: no significant weather observed at this time

METAR text: TFFR 231200Z AUTO 08008KT 050V110 9999 FEW014 BKN041 BKN049 28/25 Q1018 TEMPO 4000 SHRA BKN016TCU
Conditions at: TFFR (LE RAIZET , GP) observed 1200 UTC 23 June 2019
Temperature: 28.0°C (82°F)
Dewpoint: 25.0°C (77°F) [RH = 84%]
Pressure (altimeter): 30.06 inches Hg (1018.0 mb)
Winds: from the E (80 degrees) at 9 MPH (8 knots; 4.1 m/s)
Visibility: 6 or more miles (10+ km)
Ceiling: 4100 feet AGL
Clouds: few clouds at 1400 feet AGL
broken clouds at 4100 feet AGL
broken clouds at 4900 feet AGL
Weather: no significant weather observed at this time

METAR text: TFFR 231130Z AUTO 07008KT 9999 SCT012 BKN019 BKN025 28/25 Q1018 TEMPO 4000 SHRA BKN016TCU
Conditions at: TFFR (LE RAIZET , GP) observed 1130 UTC 23 June 2019
Temperature: 28.0°C (82°F)
Dewpoint: 25.0°C (77°F) [RH = 84%]
Pressure (altimeter): 30.06 inches Hg (1018.0 mb)
Winds: from the ENE (70 degrees) at 9 MPH (8 knots; 4.1 m/s)
Visibility: 6 or more miles (10+ km)
Ceiling: 1900 feet AGL
Clouds: scattered clouds at 1200 feet AGL
broken clouds at 1900 feet AGL
broken clouds at 2500 feet AGL
Weather: no significant weather observed at this time

METAR text: TFFR 231100Z AUTO 07004KT 9999 FEW022 26/24 Q1018 TEMPO 4000 SHRA BKN016TCU
Conditions at: TFFR (LE RAIZET , GP) observed 1100 UTC 23 June 2019
Temperature: 26.0°C (79°F)
Dewpoint: 24.0°C (75°F) [RH = 89%]
Pressure (altimeter): 30.06 inches Hg (1018.0 mb)
Winds: from the ENE (70 degrees) at 5 MPH (4 knots; 2.1 m/s)
Visibility: 6 or more miles (10+ km)
Ceiling: at least 12,000 feet AGL
Clouds: few clouds at 2200 feet AGL
Weather: no significant weather observed at this time

METAR text: TFFR 231030Z AUTO 10004KT 9999 FEW017/// SCT030/// BKN044/// ///TCU 26/24 Q1018 TEMPO 4000 SHRA
Conditions at: TFFR (LE RAIZET , GP) observed 1030 UTC 23 June 2019
Temperature: 26.0°C (79°F)
Dewpoint: 24.0°C (75°F) [RH = 89%]
Pressure (altimeter): 30.06 inches Hg (1018.0 mb)
Winds: from the E (100 degrees) at 5 MPH (4 knots; 2.1 m/s)
Visibility: 6 or more miles (10+ km)
Ceiling: 4400 feet AGL
Clouds: few clouds at 1700 feet AGL
scattered clouds at 3000 feet AGL
broken clouds at 4400 feet AGL
Weather: no significant weather observed at this time

METAR text: TFFR 231000Z AUTO 04002KT 9999 BKN048/// BKN054/// OVC066/// ///TCU 25/23 Q1018 TEMPO 4000 SHRA FEW023 SCT040
Conditions at: TFFR (LE RAIZET , GP) observed 1000 UTC 23 June 2019
Temperature: 25.0°C (77°F)
Dewpoint: 23.0°C (73°F) [RH = 89%]
Pressure (altimeter): 30.06 inches Hg (1018.0 mb)
Winds: from the NE (40 degrees) at 2 MPH (2 knots; 1.0 m/s)
Visibility: 6 or more miles (10+ km)
Ceiling: 4800 feet AGL
Clouds: broken clouds at 4800 feet AGL
broken clouds at 5400 feet AGL
overcast cloud deck at 6600 feet AGL
Weather: no significant weather observed at this time

METAR text: TFFR 230930Z AUTO 00000KT 9999 OVC052/// ///TCU 25/23 Q1018 TEMPO 4000 SHRA FEW023 SCT040
Conditions at: TFFR (LE RAIZET , GP) observed 0930 UTC 23 June 2019
Temperature: 25.0°C (77°F)
Dewpoint: 23.0°C (73°F) [RH = 89%]
Pressure (altimeter): 30.06 inches Hg (1018.0 mb)
Winds: calm
Visibility: 6 or more miles (10+ km)
Ceiling: 5200 feet AGL
Clouds: overcast cloud deck at 5200 feet AGL
Weather: no significant weather observed at this time

METAR text: TFFR 230900Z AUTO 00000KT 9999 OVC054 25/23 Q1017 NOSIG
Conditions at: TFFR (LE RAIZET , GP) observed 0900 UTC 23 June 2019
Temperature: 25.0°C (77°F)
Dewpoint: 23.0°C (73°F) [RH = 89%]
Pressure (altimeter): 30.03 inches Hg (1017.0 mb)
Winds: calm
Visibility: 6 or more miles (10+ km)
Ceiling: 5400 feet AGL
Clouds: overcast cloud deck at 5400 feet AGL
Weather: no significant weather observed at this time

METAR text: TFFR 230830Z AUTO 16002KT 9999 BKN052 24/23 Q1017 NOSIG
Conditions at: TFFR (LE RAIZET , GP) observed 0830 UTC 23 June 2019
Temperature: 24.0°C (75°F)
Dewpoint: 23.0°C (73°F) [RH = 94%]
Pressure (altimeter): 30.03 inches Hg (1017.0 mb)
Winds: from the SSE (160 degrees) at 2 MPH (2 knots; 1.0 m/s)
Visibility: 6 or more miles (10+ km)
Ceiling: 5200 feet AGL
Clouds: broken clouds at 5200 feet AGL
Weather: no significant weather observed at this time

METAR text: TFFR 230800Z AUTO 26001KT 9999 BKN060 24/23 Q1017 NOSIG
Conditions at: TFFR (LE RAIZET , GP) observed 0800 UTC 23 June 2019
Temperature: 24.0°C (75°F)
Dewpoint: 23.0°C (73°F) [RH = 94%]
Pressure (altimeter): 30.03 inches Hg (1017.0 mb)
Winds: from the W (260 degrees) at 1 MPH (1 knots; 0.5 m/s)
Visibility: 6 or more miles (10+ km)
Ceiling: 6000 feet AGL
Clouds: broken clouds at 6000 feet AGL
Weather: no significant weather observed at this time

METAR text: TFFR 230730Z AUTO VRB02KT 9999 BKN056 25/23 Q1017 NOSIG
Conditions at: TFFR (LE RAIZET , GP) observed 0730 UTC 23 June 2019
Temperature: 25.0°C (77°F)
Dewpoint: 23.0°C (73°F) [RH = 89%]
Pressure (altimeter): 30.03 inches Hg (1017.0 mb)
Winds: variable direction winds at 2 MPH (2 knots; 1.0 m/s)
Visibility: 6 or more miles (10+ km)
Ceiling: 5600 feet AGL
Clouds: broken clouds at 5600 feet AGL
Weather: no significant weather observed at this time

METAR text: TFFR 230700Z AUTO 00000KT 9999 FEW056 24/22 Q1017 NOSIG
Conditions at: TFFR (LE RAIZET , GP) observed 0700 UTC 23 June 2019
Temperature: 24.0°C (75°F)
Dewpoint: 22.0°C (72°F) [RH = 89%]
Pressure (altimeter): 30.03 inches Hg (1017.0 mb)
Winds: calm
Visibility: 6 or more miles (10+ km)
Ceiling: at least 12,000 feet AGL
Clouds: few clouds at 5600 feet AGL
Weather: no significant weather observed at this time

METAR text: TFFR 230630Z AUTO VRB01KT CAVOK 24/22 Q1017 NOSIG
Conditions at: TFFR (LE RAIZET , GP) observed 0630 UTC 23 June 2019
Temperature: 24.0°C (75°F)
Dewpoint: 22.0°C (72°F) [RH = 89%]
Pressure (altimeter): 30.03 inches Hg (1017.0 mb)
Winds: variable direction winds at 1 MPH (1 knots; 0.5 m/s)
Visibility: 6 or more miles (10+ km)
Ceiling: ceiling and visibility are OK
Clouds: unknown
Weather: no significant weather observed at this time

METAR text: TFFR 230600Z AUTO 13003KT CAVOK 24/22 Q1018 NOSIG
Conditions at: TFFR (LE RAIZET , GP) observed 0600 UTC 23 June 2019
Temperature: 24.0°C (75°F)
Dewpoint: 22.0°C (72°F) [RH = 89%]
Pressure (altimeter): 30.06 inches Hg (1018.0 mb)
Winds: from the SE (130 degrees) at 3 MPH (3 knots; 1.5 m/s)
Visibility: 6 or more miles (10+ km)
Ceiling: ceiling and visibility are OK
Clouds: unknown
Weather: no significant weather observed at this time

Forecast for: AMD
Text: TAF AMD TFFR 241632Z 2416/2512 12014KT 9999 SCT035
Forecast period: 1600 UTC 24 June 2019 to 1200 UTC 25 June 2019
Forecast type: FROM: standard forecast or significant change
Winds: from the ESE (120 degrees) at 16 MPH (14 knots; 7.2 m/s)
Visibility: 6 or more miles 10+ km)
Ceiling: at least 12,000 feet AGL
Clouds: scattered clouds at 3500 feet AGL
Weather: no significant weather forecast for this period
Text: PROB30
Forecast period: 1600 to 2000 UTC 24 June 2019
Forecast type: TEMPORARY: The following changes expected for less than half the time period
Visibility: 2.49 miles (4.01 km)
Ceiling: at least 12,000 feet AGL
Clouds: scattered clouds at 1500 feet AGL
scattered clouds at 3000 feet AGL
Weather: SHRA  (rain showers)
Text: TEMPO 2416/2420 4000 SHRA SCT015TCU SCT030
Forecast period: 0000 to 0900 UTC 25 June 2019
Forecast type: TEMPORARY: The following changes expected for less than half the time period
Winds: variable direction winds at 2 MPH (2 knots; 1.0 m/s)
Visibility: missing
Ceiling: unknown
Clouds: missing
Weather: no significant weather forecast for this period
Text: TEMPO 2500/2509 VRB02KT
Forecast period: 0500 to 1200 UTC 25 June 2019
Forecast type: TEMPORARY: The following changes expected for less than half the time period
Visibility: 2.49 miles (4.01 km)
Ceiling: at least 12,000 feet AGL
Clouds: scattered clouds at 1500 feet AGL
scattered clouds at 3000 feet AGL
Weather: SHRA  (rain showers)